Latest Weather Observations for Bombala AWS

IDN60801

Issued at 1:52 am EST Friday 17 August 2018 (issued every 10 minutes, with the page automatically refreshed every 10 minutes)

About weather observations | Map of weather stations | Latest weather observations for NSW | Other Formats
Station Details ID: 070328 Name: BOMBALA AWS Lat: -37.00 Lon: 149.23 Height: 760.5 m
Data from the previous 72 hours. | See also: Recent months at Bombala AWS
Date/Time
EST
Temp
°C
App
Temp
°C
Dew
Point
°C
Rel
Hum
%
Delta-T
°C
Wind Press
QNH
hPa
Press
MSL
hPa
Rain since
9am
mm
Dir  Spd
km/h
Gust
km/h
Spd
kts
Gust
kts
17/01:30am 1.3 -1.8 -2.3 77 1.4 NNW 4 6 2 3 1013.7 1014.6 0.0
17/01:00am 1.7 -2.7 -2.6 73 1.6 NW 11 15 6 8 1013.6 1014.5 0.0
17/12:30am 2.2 -2.9 -2.1 73 1.6 NW 15 19 8 10 1013.5 1014.4 0.0
17/12:00am 3.7 -2.7 -1.6 68 2.0 W 22 30 12 16 1013.2 1014.1 0.0
 
Date/Time
EST
Temp
°C
App
Temp
°C
Dew
Point
°C
Rel
Hum
%
Delta-T
°C
Wind Press
QNH
hPa
Press
MSL
hPa
Rain since
9am
mm
Dir  Spd
km/h
Gust
km/h
Spd
kts
Gust
kts
16/11:30pm 3.6 -1.8 -1.7 68 2.0 WNW 17 20 9 11 1013.5 1014.4 0.0
16/11:00pm 4.2 -1.2 -1.6 66 2.2 WNW 17 20 9 11 1013.3 1014.2 0.0
16/10:30pm 5.3 -0.1 -1.4 62 2.6 NW 17 22 9 12 1013.4 1014.3 0.0
16/10:00pm 5.2 1.3 -1.5 62 2.6 WNW 9 13 5 7 1013.5 1014.4 0.0
16/09:30pm 5.7 -0.1 -1.4 60 2.8 WNW 19 24 10 13 1013.3 1014.2 0.0
16/09:00pm 6.5 1.0 -2.1 54 3.3 WNW 17 20 9 11 1013.1 1013.9 0.0
16/08:30pm 7.1 1.6 -2.1 52 3.6 WNW 17 20 9 11 1013.0 1013.8 0.0
16/08:00pm 6.4 4.2 -1.2 58 3.0 CALM 0 0 0 0 1012.8 1013.6 0.0
16/07:30pm 6.5 3.2 -1.2 58 3.0 WSW 6 7 3 4 1012.4 1013.3 0.0
16/07:00pm 6.9 3.4 -1.7 54 3.4 SW 7 9 4 5 1012.2 1013.1 0.0
16/06:30pm 6.4 2.5 -1.7 56 3.2 WSW 9 13 5 7 1011.9 1012.7 0.0
16/06:00pm 7.2 2.0 -2.8 49 3.8 WSW 15 19 8 10 1011.3 1012.1 0.0
16/05:30pm 7.7 2.1 -2.9 47 4.1 W 17 20 9 11 1010.8 1011.6 0.0
16/05:00pm 9.4 3.8 -2.5 43 4.7 SW 17 22 9 12 1010.5 1011.3 0.0
16/04:30pm 10.9 4.8 -3.6 36 5.7 W 19 24 10 13 1010.2 1011.0 0.0
16/04:00pm 11.4 5.3 -3.5 35 5.9 WSW 19 30 10 16 1009.9 1010.7 0.0
16/03:30pm 11.6 6.3 -3.7 34 6.0 WNW 15 26 8 14 1009.8 1010.5 0.0
16/03:00pm 11.6 4.9 -4.1 33 6.1 W 22 28 12 15 1009.5 1010.3 0.0
16/02:30pm 11.9 5.8 -3.8 33 6.2 W 19 33 10 18 1009.5 1010.3 0.0
16/02:00pm 11.4 5.2 -4.7 32 6.2 WNW 19 30 10 16 1009.4 1010.2 0.0
16/01:30pm 11.9 4.9 -3.4 34 6.1 WNW 24 35 13 19 1009.4 1010.2 0.0
16/01:00pm 11.0 5.7 -3.5 36 5.7 W 15 24 8 13 1009.5 1010.3 0.0
16/12:30pm 10.3 4.2 -4.1 36 5.5 WSW 19 26 10 14 1009.9 1010.7 0.0
16/12:00pm 10.6 4.6 -2.8 39 5.3 W 19 33 10 18 1010.1 1010.9 0.0
16/11:30am 9.5 2.5 -3.1 41 4.9 WNW 24 33 13 18 1010.4 1011.2 0.0
16/11:00am 9.1 2.5 -3.1 42 4.7 W 22 32 12 17 1010.5 1011.3 0.0
16/10:30am 8.7 0.6 -2.9 44 4.5 W 30 37 16 20 1010.4 1011.2 0.0
16/10:00am 8.6 1.4 -2.3 46 4.3 W 26 35 14 19 1010.4 1011.2 0.0
16/09:30am 7.7 0.6 -1.5 52 3.7 W 26 37 14 20 1010.1 1010.9 0.0
16/09:00am 6.8 -0.7 -1.6 55 3.3 W 28 37 15 20 1009.9 1010.7 0.0
16/08:30am 6.4 -0.3 -1.0 59 2.9 W 24 33 13 18 1009.6 1010.4 0.0
16/08:00am 5.8 -0.9 -0.9 62 2.7 WNW 24 28 13 15 1009.4 1010.2 0.0
16/07:30am 4.5 -1.8 -1.1 67 2.2 WNW 22 28 12 15 1008.8 1009.6 0.0
16/07:00am 3.3 -2.5 -1.4 71 1.8 WNW 19 20 10 11 1008.6 1009.3 0.0
16/06:30am 2.0 -3.1 -1.8 76 1.4 W 15 17 8 9 1008.4 1009.1 0.0
16/06:00am 2.1 -1.5 -2.0 74 1.5 W 7 9 4 5 1008.0 1008.8 0.0
16/05:30am 3.3 -0.5 -1.1 73 1.7 E 9 15 5 8 1007.9 1008.7 0.0
16/05:00am 4.1 -0.1 -1.1 69 2.0 W 11 13 6 7 1007.4 1008.1 0.0
16/04:30am 3.1 -2.8 -0.9 75 1.5 W 20 24 11 13 1007.0 1007.7 0.0
16/04:00am 3.6 -2.2 -0.4 75 1.6 WSW 20 24 11 13 1007.0 1007.7 0.0
16/03:30am 5.0 -0.9 -0.6 67 2.2 WNW 20 24 11 13 1006.7 1007.5 0.0
16/03:00am 6.9 0.7 -0.3 60 2.9 NW 22 30 12 16 1006.8 1007.6 0.0
16/02:30am 7.0 0.5 0.0 61 2.9 WNW 24 35 13 19 1007.2 1007.9 0.0
16/02:00am 7.0 0.8 0.0 61 2.9 WNW 22 26 12 14 1007.1 1007.8 0.0
16/01:30am 7.3 1.1 -0.4 58 3.1 WNW 22 32 12 17 1007.3 1008.0 0.0
16/01:00am 8.1 1.1 -0.4 55 3.5 WNW 26 35 14 19 1007.1 1007.8 0.0
16/12:30am 8.1 1.5 -0.1 56 3.4 NW 24 32 13 17 1007.1 1007.8 0.0
16/12:00am 7.5 2.8 0.9 63 2.8 NW 15 22 8 12 1007.1 1007.8 0.0
 
Date/Time
EST
Temp
°C
App
Temp
°C
Dew
Point
°C
Rel
Hum
%
Delta-T
°C
Wind Press
QNH
hPa
Press
MSL
hPa
Rain since
9am
mm
Dir  Spd
km/h
Gust
km/h
Spd
kts
Gust
kts
15/11:30pm 6.7 2.4 1.0 67 2.4 NNW 13 17 7 9 1007.0 1007.7 0.0
15/11:00pm 7.1 3.6 1.2 66 2.5 NW 9 13 5 7 1007.0 1007.7 0.0
15/10:30pm 8.4 3.1 1.6 62 2.9 WNW 19 24 10 13 1007.0 1007.7 0.0
15/10:00pm 8.4 2.6 2.2 65 2.7 WNW 22 28 12 15 1006.7 1007.5 0.0
15/09:30pm 9.0 1.4 2.6 64 2.8 W 32 43 17 23 1006.4 1007.1 0.0
15/09:22pm 9.3 -0.5 2.4 62 3.1 W 43 61 23 33 1006.5 1007.3 0.0
15/09:11pm 10.0 -1.5 2.1 58 3.5 WNW 52 74 28 40 1006.1 1006.8 0.0
15/09:08pm 10.2 -0.6 2.1 57 3.6 WNW 48 74 26 40 1005.8 1006.5 0.0
15/09:05pm 10.2 0.3 1.8 56 3.7 WNW 43 65 23 35 1006.0 1006.7 0.0
15/09:00pm 10.3 0.4 1.9 56 3.7 WNW 43 57 23 31 1005.9 1006.6 0.0
15/08:31pm 11.0 1.5 1.8 53 4.1 WNW 41 63 22 34 1005.6 1006.3 0.0
15/08:30pm 10.9 1.8 1.7 53 4.1 WNW 39 57 21 31 1005.7 1006.4 0.0
15/08:26pm 10.7 2.0 1.8 54 3.9 WNW 37 56 20 30 1005.8 1006.5 0.0
15/08:23pm 11.0 2.3 1.8 53 4.1 WNW 37 56 20 30 1005.7 1006.4 0.0
15/08:00pm 9.9 4.0 1.8 57 3.6 WNW 22 32 12 17 1005.7 1006.4 0.0
15/07:30pm 9.8 2.8 1.9 58 3.5 WNW 28 35 15 19 1005.4 1006.2 0.0
15/07:00pm 9.3 3.0 1.7 59 3.3 WNW 24 32 13 17 1005.6 1006.3 0.0
15/06:30pm 9.3 2.6 1.7 59 3.3 WNW 26 35 14 19 1005.6 1006.3 0.0
15/06:00pm 9.4 1.0 1.8 59 3.3 WNW 35 46 19 25 1005.1 1005.8 0.0
15/05:30pm 10.0 0.2 2.1 58 3.5 WNW 43 56 23 30 1005.0 1005.7 0.0
15/05:00pm 10.9 -0.6 2.2 55 3.9 WNW 52 72 28 39 1004.0 1004.7 0.0
15/04:33pm 11.4 -0.9 2.2 53 4.1 WNW 56 76 30 41 1003.9 1004.6 0.0
15/04:30pm 11.4 -0.5 2.2 53 4.1 WNW 54 67 29 36 1004.4 1005.1 0.0
15/04:00pm 11.9 -1.0 1.8 50 4.5 WNW 59 80 32 43 1003.8 1004.5 0.0
15/03:30pm 12.6 0.1 1.9 48 4.8 WNW 57 87 31 47 1004.0 1004.7 0.0
15/03:01pm 12.7 1.1 2.0 48 4.8 NW 52 74 28 40 1004.3 1005.0 0.0
15/03:00pm 12.8 1.6 2.1 48 4.9 NW 50 69 27 37 1004.5 1005.2 0.0
15/02:42pm 12.9 1.0 2.2 48 4.9 NW 54 72 29 39 1004.7 1005.4 0.0
15/02:30pm 12.8 0.9 2.4 49 4.7 NW 54 70 29 38 1004.6 1005.3 0.0
15/02:02pm 12.4 0.5 2.3 50 4.6 NW 54 74 29 40 1004.9 1005.6 0.0
15/02:00pm 12.4 0.1 2.3 50 4.6 NW 56 74 30 40 1004.9 1005.6 0.0
15/01:30pm 13.9 1.5 2.5 46 5.3 NW 57 76 31 41 1004.3 1005.0 0.0
15/01:15pm 13.5 0.6 1.8 45 5.3 NW 59 89 32 48 1004.5 1005.2 0.0
15/01:04pm 13.7 0.9 2.3 46 5.2 WNW 59 89 32 48 1005.0 1005.7 0.0
15/01:03pm 14.0 1.2 2.6 46 5.3 WNW 59 89 32 48 1005.4 1006.2 0.0
15/01:00pm 13.1 -0.9 2.1 47 5.0 WNW 65 89 35 48 1005.1 1005.8 0.0
15/12:38pm 13.6 -1.1 2.2 46 5.2 WNW 69 91 37 49 1005.8 1006.5 0.0
15/12:35pm 13.3 -1.4 2.2 47 5.1 WNW 69 91 37 49 1005.4 1006.2 0.0
15/12:30pm 13.8 0.6 2.4 46 5.2 WNW 61 85 33 46 1006.1 1006.8 0.0
15/12:02pm 14.0 2.1 2.0 44 5.5 WNW 54 74 29 40 1006.5 1007.3 0.0
15/12:00pm 13.9 1.6 1.9 44 5.5 WNW 56 74 30 40 1006.3 1007.0 0.0
15/11:30am 14.1 2.0 0.7 40 6.0 WNW 54 76 29 41 1006.6 1007.4 0.0
15/11:09am 14.1 3.1 0.7 40 6.0 WNW 48 69 26 37 1006.8 1007.6 0.0
15/11:00am 14.3 4.3 0.9 40 6.0 WNW 43 61 23 33 1007.0 1007.7 0.0
15/10:32am 13.3 3.0 -0.7 38 6.0 WNW 43 63 23 34 1007.1 1007.8 0.0
15/10:30am 13.6 3.2 -0.1 39 6.0 WNW 44 63 24 34 1007.1 1007.8 0.0
15/10:01am 13.2 2.4 -0.4 39 5.9 WNW 46 72 25 39 1007.5 1008.2 0.0
15/10:00am 13.2 2.4 -0.4 39 5.9 WNW 46 61 25 33 1007.6 1008.4 0.0
15/09:36am 13.1 0.3 -1.2 37 6.0 WNW 56 78 30 42 1007.3 1008.0 0.0
15/09:30am 13.1 0.6 -1.6 36 6.2 WNW 54 72 29 39 1007.3 1008.0 0.0
15/09:24am 12.5 1.1 -2.1 36 6.0 WNW 48 72 26 39 1006.8 1007.6 0.0
15/09:00am 12.4 2.5 -1.1 39 5.7 WNW 41 54 22 29 1007.2 1007.9 0.0
15/08:35am 11.6 0.7 -1.2 41 5.3 WNW 46 69 25 37 1006.7 1007.5 0.0
15/08:30am 11.4 0.5 -1.0 42 5.2 WNW 46 63 25 34 1007.0 1007.7 0.0
15/08:18am 11.1 1.2 -1.0 43 5.0 WNW 41 67 22 36 1007.1 1007.8 0.0
15/08:00am 10.4 1.2 -1.0 45 4.7 WNW 37 50 20 27 1007.2 1007.9 0.0
15/07:30am 9.4 1.0 -1.0 48 4.3 WNW 33 46 18 25 1007.0 1007.7 0.0
15/07:00am 8.9 0.5 -1.2 49 4.1 NW 33 46 18 25 1007.3 1008.0 0.0
15/06:48am 9.0 -0.2 -1.4 48 4.2 WNW 37 56 20 30 1007.6 1008.4 0.0
15/06:30am 8.9 0.1 -1.5 48 4.2 NW 35 46 19 25 1007.3 1008.0 0.0
15/06:14am 9.1 0.6 -1.6 47 4.3 NW 33 54 18 29 1007.6 1008.4 0.0
15/06:00am 8.8 0.9 -1.9 47 4.3 NW 30 48 16 26 1007.7 1008.5 0.0
15/05:59am 8.4 0.8 -2.0 48 4.1 NW 28 44 15 24 1007.7 1008.5 0.0
15/05:30am 5.2 -0.5 -3.6 53 3.2 NNW 17 22 9 12 1008.0 1008.8 0.0
15/05:00am 5.0 -1.1 -3.8 53 3.2 NNW 19 20 10 11 1008.2 1009.0 0.0
15/04:30am 5.5 -1.4 -2.6 56 3.1 NW 24 30 13 16 1008.0 1008.8 0.0
15/04:00am 3.2 -2.0 -2.9 64 2.2 NW 15 20 8 11 1008.1 1008.9 0.0
15/03:30am 4.7 -1.5 -2.8 58 2.8 NW 20 28 11 15 1009.2 1010.0 0.0
15/03:00am 6.1 -2.6 -3.8 49 3.7 NNW 33 39 18 21 1009.4 1010.2 0.0
15/02:30am 5.0 -0.9 -5.9 45 3.8 NW 17 20 9 11 1010.6 1011.4 0.0
15/02:00am 5.1 -2.5 -5.5 46 3.7 NNW 26 30 14 16 1011.0 1011.9 0.0
15/01:30am 4.8 -2.3 -4.5 51 3.3 NW 24 28 13 15 1011.0 1011.9 0.0
15/01:00am 5.2 -1.5 -4.1 51 3.4 NW 22 26 12 14 1011.3 1012.1 0.0
15/12:30am 6.0 -1.4 -3.9 49 3.6 NNW 26 32 14 17 1011.2 1012.0 0.0
15/12:00am 5.4 -2.1 -4.2 50 3.5 NW 26 30 14 16 1011.7 1012.5 0.0
 
Date/Time
EST
Temp
°C
App
Temp
°C
Dew
Point
°C
Rel
Hum
%
Delta-T
°C
Wind Press
QNH
hPa
Press
MSL
hPa
Rain since
9am
mm
Dir  Spd
km/h
Gust
km/h
Spd
kts
Gust
kts
14/11:30pm 5.6 -1.9 -4.5 48 3.6 NW 26 32 14 17 1012.2 1013.1 0.0
14/11:00pm 7.1 0.3 -4.9 42 4.4 NW 22 28 12 15 1012.8 1013.6 0.0
14/10:30pm 4.9 -0.2 -5.2 48 3.5 NNW 13 15 7 8 1013.3 1014.2 0.0
14/10:00pm 5.3 -0.1 -4.8 48 3.6 NW 15 19 8 10 1013.7 1014.6 0.0
14/09:30pm 6.5 0.7 -4.9 44 4.1 NNW 17 22 9 12 1014.1 1014.9 0.0
14/09:00pm 7.5 3.2 -4.6 42 4.4 NW 9 17 5 9 1014.3 1015.2 0.0
14/08:30pm 6.8 3.0 -3.4 48 3.8 NNW 7 13 4 7 1014.9 1015.8 0.0
14/08:00pm 7.5 1.5 -2.8 48 4.0 NW 19 22 10 12 1015.1 1016.0 0.0
14/07:30pm 9.4 3.2 -2.8 42 4.8 NW 20 24 11 13 1015.2 1016.1 0.0
14/07:00pm 10.3 3.0 -3.0 39 5.2 WNW 26 32 14 17 1015.4 1016.2 0.0
14/06:30pm 10.2 2.8 -3.5 38 5.3 WNW 26 30 14 16 1015.6 1016.5 0.0
14/06:00pm 12.7 6.5 -4.4 30 6.7 NW 19 26 10 14 1015.8 1016.7 0.0
14/05:30pm 12.2 7.3 -3.6 33 6.3 NW 13 17 7 9 1016.1 1017.0 0.0
14/05:00pm 14.0 9.6 -2.4 32 6.8 NW 11 19 6 10 1016.2 1017.1 0.0
14/04:30pm 15.0 9.3 -0.7 34 6.8 NW 19 26 10 14 1016.3 1017.2 0.0
14/04:00pm 16.1 10.4 -1.0 31 7.5 WNW 19 26 10 14 1016.3 1017.2 0.0
14/03:30pm 16.7 11.0 -0.9 30 7.7 NW 19 24 10 13 1016.4 1017.3 0.0
14/03:00pm 17.1 11.4 -1.1 29 8.0 WNW 19 26 10 14 1016.6 1017.6 0.0
14/02:30pm 17.7 11.0 -1.0 28 8.3 WNW 24 32 13 17 1016.8 1017.7 0.0
14/02:00pm 16.9 9.4 -1.2 29 7.9 WNW 28 37 15 20 1017.0 1017.9 0.0
14/01:30pm 16.2 10.4 -0.1 33 7.3 NW 20 32 11 17 1017.3 1018.2 0.0
14/01:00pm 15.3 9.1 -0.4 34 6.9 NW 22 28 12 15 1018.0 1019.0 0.0
14/12:30pm 15.0 7.8 0.4 37 6.5 NW 28 37 15 20 1018.4 1019.3 0.0
14/12:00pm 13.9 6.6 0.2 39 6.0 NW 28 37 15 20 1019.1 1020.1 0.0
14/11:30am 13.4 7.0 0.8 42 5.6 NW 24 32 13 17 1019.6 1020.5 0.0
14/11:00am 12.0 5.2 0.5 45 5.0 NW 26 32 14 17 1020.2 1021.2 0.0
14/10:30am 11.2 4.4 0.9 49 4.5 NW 26 32 14 17 1020.4 1021.4 0.0
14/10:00am 9.7 5.5 1.8 58 3.4 NNW 13 19 7 10 1020.6 1021.6 0.0
14/09:30am 7.8 3.1 1.0 62 2.9 NNW 15 19 8 10 1021.1 1022.1 0.0
14/09:00am 5.9 2.4 1.2 72 1.9 N 9 13 5 7 1021.2 1022.2 0.0
14/08:30am 4.8 1.2 0.8 75 1.6 N 9 11 5 6 1021.3 1022.3 0.0
14/08:00am 3.2 -0.1 -0.1 79 1.3 N 7 9 4 5 1021.2 1022.2 0.0
14/07:30am 2.6 -0.8 -0.5 80 1.2 N 7 9 4 5 1021.1 1022.1 0.0
14/07:00am 2.2 -1.2 -0.5 82 1.0 N 7 9 4 5 1020.5 1021.5 0.0
14/06:30am 2.5 -1.3 -0.8 79 1.3 NNW 9 15 5 8 1020.1 1021.1 0.0
14/06:00am 2.1 -1.6 -0.3 84 0.9 NNW 9 9 5 5 1020.0 1021.0 0.0
14/05:30am 1.6 -2.2 -0.6 85 0.8 N 9 11 5 6 1019.9 1020.9 0.0
14/05:00am 2.0 -1.2 -0.4 84 0.9 N 6 9 3 5 1019.7 1020.6 0.0
14/04:30am 2.3 -1.5 -0.6 81 1.1 NNW 9 11 5 6 1019.8 1020.7 0.0
14/04:00am 2.0 -2.5 -0.4 84 0.9 NNW 13 15 7 8 1019.6 1020.5 0.0
14/03:30am 1.9 -2.2 -0.3 85 0.8 NNW 11 13 6 7 1019.4 1020.4 0.0
14/03:00am 2.0 -1.7 -0.1 86 0.8 NNW 9 13 5 7 1019.7 1020.6 0.0
14/02:30am 2.4 -1.3 0.1 85 0.9 NW 9 13 5 7 1020.0 1021.0 0.0
14/02:00am 2.8 -0.5 0.4 84 0.9 NNW 7 9 4 5 1020.3 1021.3 0.0

Other Formats:

Comma delimited format used in spreadsheet applications
http://www.bom.gov.au/fwo/IDN60801/IDN60801.94929.axf

JavaScript Object Notation format (JSON) in row-major order
http://www.bom.gov.au/fwo/IDN60801/IDN60801.94929.json